This is the latest recevied weather packets stored in our database for station/object SP6PGH-13. If no packets are shown the sender has not sent any weather packets the latest 10 day(s).
| Time | Temp. | Humidity | Pressure | Rain* | Wind** | Luminosity | Snow |
|---|---|---|---|---|---|---|---|
| 1777133920 | 18.89° C | 33% | 995.7 hPa | - | - | 104 W/m² | - |
| 1777133019 | 18.89° C | 32% | 995.8 hPa | - | - | 134 W/m² | - |
| 1777132118 | 19.44° C | 32% | 995.9 hPa | - | - | 177 W/m² | - |
| 1777131216 | 19.44° C | 31% | 996.1 hPa | - | - | 203 W/m² | - |
| 1777130315 | 19.44° C | 31% | 996 hPa | - | - | 246 W/m² | - |
| 1777129414 | 20° C | 30% | 996.1 hPa | - | - | 284 W/m² | - |
| 1777128513 | 19.44° C | 30% | 996.2 hPa | - | - | 314 W/m² | - |
| 1777127612 | 19.44° C | 32% | 996.2 hPa | - | - | 354 W/m² | - |
| 1777126711 | 19.44° C | 31% | 996.3 hPa | - | - | 391 W/m² | - |
| 1777125810 | 19.44° C | 32% | 996.4 hPa | - | - | 426 W/m² | - |
| 1777124909 | 19.44° C | 33% | 996.6 hPa | - | - | 453 W/m² | - |
| 1777124008 | 18.89° C | 30% | 996.6 hPa | - | - | 500 W/m² | - |
| 1777123108 | 19.44° C | 30% | 996.9 hPa | - | - | 540 W/m² | - |
| 1777122207 | 18.89° C | 33% | 997 hPa | - | - | 571 W/m² | - |
| 1777121306 | 18.33° C | 34% | 997.2 hPa | - | - | 611 W/m² | - |
| 1777120404 | 18.33° C | 36% | 997.3 hPa | - | - | 638 W/m² | - |
| 1777119504 | 17.78° C | 36% | 997.5 hPa | - | - | 646 W/m² | - |
| 1777118603 | 17.78° C | 36% | 997.6 hPa | - | - | 664 W/m² | - |
| 1777117702 | 17.22° C | 37% | 997.7 hPa | - | - | 676 W/m² | - |
| 1777116801 | 16.67° C | 40% | 997.9 hPa | - | - | 682 W/m² | - |
| 1777115900 | 16.11° C | 42% | 997.9 hPa | - | - | 696 W/m² | - |
| 1777114999 | 16.67° C | 39% | 998 hPa | - | - | 706 W/m² | - |
| 1777114098 | 16.67° C | 44% | 998.1 hPa | - | - | 707 W/m² | - |
| 1777113197 | 16.11° C | 45% | 998.2 hPa | - | - | 691 W/m² | - |
| 1777111391 | 14.44° C | 54% | 998.4 hPa | - | - | 679 W/m² | - |
* Rain since midnight (hover to see other rain measurements)
** Current wind speed in m/s (hover to see current wind gust speed)